sensor_id;sensor_type;location;lat;lon;timestamp;temperature;humidity
20712;DHT22;10517;50.742;4.224;2022-10-15T00:01:40;15.70;99.90
20712;DHT22;10517;50.742;4.224;2022-10-15T00:04:06;15.70;99.90
20712;DHT22;10517;50.742;4.224;2022-10-15T00:06:32;15.70;99.90
20712;DHT22;10517;50.742;4.224;2022-10-15T00:08:57;15.80;99.90
20712;DHT22;10517;50.742;4.224;2022-10-15T00:11:24;15.80;99.90
20712;DHT22;10517;50.742;4.224;2022-10-15T00:13:55;15.80;99.90
20712;DHT22;10517;50.742;4.224;2022-10-15T00:16:23;15.70;99.90
20712;DHT22;10517;50.742;4.224;2022-10-15T00:18:50;15.70;99.90
20712;DHT22;10517;50.742;4.224;2022-10-15T00:21:18;15.60;99.90
20712;DHT22;10517;50.742;4.224;2022-10-15T00:23:44;15.60;99.90
20712;DHT22;10517;50.742;4.224;2022-10-15T00:26:21;15.60;99.90
20712;DHT22;10517;50.742;4.224;2022-10-15T00:28:52;15.70;99.90
20712;DHT22;10517;50.742;4.224;2022-10-15T00:31:18;15.70;99.90
20712;DHT22;10517;50.742;4.224;2022-10-15T00:33:45;15.70;99.90
20712;DHT22;10517;50.742;4.224;2022-10-15T00:36:18;15.70;99.90
20712;DHT22;10517;50.742;4.224;2022-10-15T00:38:44;15.60;99.90
20712;DHT22;10517;50.742;4.224;2022-10-15T00:41:16;15.60;99.90
20712;DHT22;10517;50.742;4.224;2022-10-15T00:43:47;15.60;99.90
20712;DHT22;10517;50.742;4.224;2022-10-15T00:48:47;15.60;99.90
20712;DHT22;10517;50.742;4.224;2022-10-15T00:51:16;15.50;99.90
20712;DHT22;10517;50.742;4.224;2022-10-15T00:53:42;15.60;99.90
20712;DHT22;10517;50.742;4.224;2022-10-15T00:56:08;15.50;99.90
20712;DHT22;10517;50.742;4.224;2022-10-15T00:58:34;15.40;99.90
20712;DHT22;10517;50.742;4.224;2022-10-15T01:01:00;15.40;99.90
20712;DHT22;10517;50.742;4.224;2022-10-15T01:03:26;15.40;99.90
20712;DHT22;10517;50.742;4.224;2022-10-15T01:05:52;15.40;99.90
20712;DHT22;10517;50.742;4.224;2022-10-15T01:08:19;15.50;99.90
20712;DHT22;10517;50.742;4.224;2022-10-15T01:10:54;15.50;99.90
20712;DHT22;10517;50.742;4.224;2022-10-15T01:13:40;15.50;99.90
20712;DHT22;10517;50.742;4.224;2022-10-15T01:16:58;15.50;99.90
20712;DHT22;10517;50.742;4.224;2022-10-15T01:22:00;15.50;99.90
20712;DHT22;10517;50.742;4.224;2022-10-15T01:33:10;15.50;99.90
20712;DHT22;10517;50.742;4.224;2022-10-15T01:36:08;15.50;99.90
20712;DHT22;10517;50.742;4.224;2022-10-15T01:43:38;15.50;99.90
20712;DHT22;10517;50.742;4.224;2022-10-15T01:46:12;15.50;99.90
20712;DHT22;10517;50.742;4.224;2022-10-15T01:48:39;15.50;99.90
20712;DHT22;10517;50.742;4.224;2022-10-15T01:51:06;15.50;99.90
20712;DHT22;10517;50.742;4.224;2022-10-15T01:53:35;15.50;99.90
20712;DHT22;10517;50.742;4.224;2022-10-15T01:56:07;15.40;99.90
20712;DHT22;10517;50.742;4.224;2022-10-15T01:58:39;15.40;99.90
20712;DHT22;10517;50.742;4.224;2022-10-15T02:01:05;15.30;99.90
20712;DHT22;10517;50.742;4.224;2022-10-15T02:03:31;15.40;99.90
20712;DHT22;10517;50.742;4.224;2022-10-15T02:06:04;15.50;99.90
20712;DHT22;10517;50.742;4.224;2022-10-15T02:14:43;15.30;99.90
20712;DHT22;10517;50.742;4.224;2022-10-15T02:17:10;15.30;99.90
20712;DHT22;10517;50.742;4.224;2022-10-15T02:19:47;15.40;99.90
20712;DHT22;10517;50.742;4.224;2022-10-15T02:22:18;15.30;99.90
20712;DHT22;10517;50.742;4.224;2022-10-15T02:24:55;15.40;99.90
20712;DHT22;10517;50.742;4.224;2022-10-15T02:27:21;15.30;99.90
20712;DHT22;10517;50.742;4.224;2022-10-15T02:29:49;15.30;99.90
20712;DHT22;10517;50.742;4.224;2022-10-15T02:32:18;15.30;99.90
20712;DHT22;10517;50.742;4.224;2022-10-15T02:34:45;15.40;99.90
20712;DHT22;10517;50.742;4.224;2022-10-15T02:37:11;15.40;99.90
20712;DHT22;10517;50.742;4.224;2022-10-15T02:39:38;15.40;99.90
20712;DHT22;10517;50.742;4.224;2022-10-15T02:42:03;15.40;99.90
20712;DHT22;10517;50.742;4.224;2022-10-15T02:44:29;15.40;99.90
20712;DHT22;10517;50.742;4.224;2022-10-15T02:46:57;15.40;99.90
20712;DHT22;10517;50.742;4.224;2022-10-15T02:49:23;15.40;99.90
20712;DHT22;10517;50.742;4.224;2022-10-15T02:51:48;15.40;99.90
20712;DHT22;10517;50.742;4.224;2022-10-15T02:54:14;15.40;99.90
20712;DHT22;10517;50.742;4.224;2022-10-15T02:56:39;15.40;99.90
20712;DHT22;10517;50.742;4.224;2022-10-15T02:59:05;15.50;99.90
20712;DHT22;10517;50.742;4.224;2022-10-15T03:01:31;15.50;99.90
20712;DHT22;10517;50.742;4.224;2022-10-15T03:03:57;15.60;99.90
20712;DHT22;10517;50.742;4.224;2022-10-15T03:06:23;15.50;99.90
20712;DHT22;10517;50.742;4.224;2022-10-15T03:08:48;15.30;99.90
20712;DHT22;10517;50.742;4.224;2022-10-15T03:11:14;15.20;99.90
20712;DHT22;10517;50.742;4.224;2022-10-15T03:13:40;15.20;99.90
20712;DHT22;10517;50.742;4.224;2022-10-15T03:16:07;15.10;99.90
20712;DHT22;10517;50.742;4.224;2022-10-15T03:18:33;14.90;99.90
20712;DHT22;10517;50.742;4.224;2022-10-15T03:20:59;14.90;99.90
20712;DHT22;10517;50.742;4.224;2022-10-15T03:23:26;14.90;99.90
20712;DHT22;10517;50.742;4.224;2022-10-15T03:25:51;14.90;99.90
20712;DHT22;10517;50.742;4.224;2022-10-15T03:28:18;15.00;99.90
20712;DHT22;10517;50.742;4.224;2022-10-15T03:30:44;15.10;99.90
20712;DHT22;10517;50.742;4.224;2022-10-15T03:33:10;15.00;99.90
20712;DHT22;10517;50.742;4.224;2022-10-15T03:35:36;15.00;99.90
20712;DHT22;10517;50.742;4.224;2022-10-15T03:38:02;14.90;99.90
20712;DHT22;10517;50.742;4.224;2022-10-15T03:40:28;14.80;99.90
20712;DHT22;10517;50.742;4.224;2022-10-15T03:42:53;14.80;99.90
20712;DHT22;10517;50.742;4.224;2022-10-15T03:45:21;14.70;99.90
20712;DHT22;10517;50.742;4.224;2022-10-15T03:47:47;14.60;99.90
20712;DHT22;10517;50.742;4.224;2022-10-15T03:50:13;14.50;99.90
20712;DHT22;10517;50.742;4.224;2022-10-15T03:52:39;14.40;99.90
20712;DHT22;10517;50.742;4.224;2022-10-15T03:55:06;14.30;99.90
20712;DHT22;10517;50.742;4.224;2022-10-15T03:57:32;14.20;99.90
20712;DHT22;10517;50.742;4.224;2022-10-15T03:59:57;14.10;99.90
20712;DHT22;10517;50.742;4.224;2022-10-15T04:02:23;14.10;99.90
20712;DHT22;10517;50.742;4.224;2022-10-15T04:04:53;14.10;99.90
20712;DHT22;10517;50.742;4.224;2022-10-15T04:07:20;14.00;99.90
20712;DHT22;10517;50.742;4.224;2022-10-15T04:09:46;14.00;99.90
20712;DHT22;10517;50.742;4.224;2022-10-15T04:12:11;14.00;99.90
20712;DHT22;10517;50.742;4.224;2022-10-15T04:14:38;14.00;99.90
20712;DHT22;10517;50.742;4.224;2022-10-15T04:17:03;13.90;99.90
20712;DHT22;10517;50.742;4.224;2022-10-15T04:19:29;13.90;99.90
20712;DHT22;10517;50.742;4.224;2022-10-15T04:21:55;13.90;99.90
20712;DHT22;10517;50.742;4.224;2022-10-15T04:24:21;14.00;99.90
20712;DHT22;10517;50.742;4.224;2022-10-15T04:26:46;14.00;99.90
20712;DHT22;10517;50.742;4.224;2022-10-15T04:29:12;14.00;99.90
20712;DHT22;10517;50.742;4.224;2022-10-15T04:31:38;14.10;99.90
20712;DHT22;10517;50.742;4.224;2022-10-15T04:34:03;14.10;99.90
20712;DHT22;10517;50.742;4.224;2022-10-15T04:36:29;14.20;99.90
20712;DHT22;10517;50.742;4.224;2022-10-15T04:38:55;14.10;99.90
20712;DHT22;10517;50.742;4.224;2022-10-15T04:41:20;14.20;99.90
20712;DHT22;10517;50.742;4.224;2022-10-15T04:43:46;14.20;99.90
20712;DHT22;10517;50.742;4.224;2022-10-15T04:46:11;14.30;99.90
20712;DHT22;10517;50.742;4.224;2022-10-15T04:48:38;14.30;99.90
20712;DHT22;10517;50.742;4.224;2022-10-15T04:53:32;14.40;99.90
20712;DHT22;10517;50.742;4.224;2022-10-15T04:56:06;14.30;99.90
20712;DHT22;10517;50.742;4.224;2022-10-15T04:58:32;14.40;99.90
20712;DHT22;10517;50.742;4.224;2022-10-15T05:01:04;14.50;99.90
20712;DHT22;10517;50.742;4.224;2022-10-15T05:03:31;14.50;99.90
20712;DHT22;10517;50.742;4.224;2022-10-15T05:06:04;14.50;99.90
20712;DHT22;10517;50.742;4.224;2022-10-15T05:08:32;14.50;99.90
20712;DHT22;10517;50.742;4.224;2022-10-15T05:11:05;14.50;99.90
20712;DHT22;10517;50.742;4.224;2022-10-15T05:13:32;14.40;99.90
20712;DHT22;10517;50.742;4.224;2022-10-15T05:16:08;14.40;99.90
20712;DHT22;10517;50.742;4.224;2022-10-15T05:18:34;14.40;99.90
20712;DHT22;10517;50.742;4.224;2022-10-15T05:21:00;14.40;99.90
20712;DHT22;10517;50.742;4.224;2022-10-15T05:23:26;14.40;99.90
20712;DHT22;10517;50.742;4.224;2022-10-15T05:25:52;14.40;99.90
20712;DHT22;10517;50.742;4.224;2022-10-15T05:28:18;14.40;99.90
20712;DHT22;10517;50.742;4.224;2022-10-15T05:30:43;14.50;99.90
20712;DHT22;10517;50.742;4.224;2022-10-15T05:33:10;14.50;99.90
20712;DHT22;10517;50.742;4.224;2022-10-15T05:35:36;14.50;99.90
20712;DHT22;10517;50.742;4.224;2022-10-15T05:38:02;14.60;99.90
20712;DHT22;10517;50.742;4.224;2022-10-15T05:40:29;14.60;99.90
20712;DHT22;10517;50.742;4.224;2022-10-15T05:42:54;14.70;99.90
20712;DHT22;10517;50.742;4.224;2022-10-15T05:45:20;14.70;99.90
20712;DHT22;10517;50.742;4.224;2022-10-15T05:47:46;14.70;99.90
20712;DHT22;10517;50.742;4.224;2022-10-15T05:50:12;14.90;99.90
20712;DHT22;10517;50.742;4.224;2022-10-15T05:52:37;14.90;99.90
20712;DHT22;10517;50.742;4.224;2022-10-15T05:55:03;14.80;99.90
20712;DHT22;10517;50.742;4.224;2022-10-15T05:57:29;14.80;99.90
20712;DHT22;10517;50.742;4.224;2022-10-15T05:59:55;14.90;99.90
20712;DHT22;10517;50.742;4.224;2022-10-15T06:02:20;14.90;99.90
20712;DHT22;10517;50.742;4.224;2022-10-15T06:04:46;15.00;99.90
20712;DHT22;10517;50.742;4.224;2022-10-15T06:07:13;15.10;99.90
20712;DHT22;10517;50.742;4.224;2022-10-15T06:09:38;15.10;99.90
20712;DHT22;10517;50.742;4.224;2022-10-15T06:12:04;15.10;99.90
20712;DHT22;10517;50.742;4.224;2022-10-15T06:14:29;15.00;99.90
20712;DHT22;10517;50.742;4.224;2022-10-15T06:16:55;15.00;99.90
20712;DHT22;10517;50.742;4.224;2022-10-15T06:19:21;15.20;99.90
20712;DHT22;10517;50.742;4.224;2022-10-15T06:21:46;15.10;99.90
20712;DHT22;10517;50.742;4.224;2022-10-15T06:24:12;15.00;99.90
20712;DHT22;10517;50.742;4.224;2022-10-15T06:26:38;15.10;99.90
20712;DHT22;10517;50.742;4.224;2022-10-15T06:29:03;15.20;99.90
20712;DHT22;10517;50.742;4.224;2022-10-15T06:31:30;15.20;99.90
20712;DHT22;10517;50.742;4.224;2022-10-15T06:33:56;15.20;99.90
20712;DHT22;10517;50.742;4.224;2022-10-15T06:36:22;15.30;99.90
20712;DHT22;10517;50.742;4.224;2022-10-15T06:38:48;15.20;99.90
20712;DHT22;10517;50.742;4.224;2022-10-15T06:41:14;15.30;99.90
20712;DHT22;10517;50.742;4.224;2022-10-15T06:43:41;15.30;99.90
20712;DHT22;10517;50.742;4.224;2022-10-15T06:46:06;15.30;99.90
20712;DHT22;10517;50.742;4.224;2022-10-15T06:48:32;15.20;99.90
20712;DHT22;10517;50.742;4.224;2022-10-15T06:50:59;15.30;99.90
20712;DHT22;10517;50.742;4.224;2022-10-15T06:53:26;15.30;99.90
20712;DHT22;10517;50.742;4.224;2022-10-15T06:55:58;15.40;99.90
20712;DHT22;10517;50.742;4.224;2022-10-15T06:58:24;15.40;99.90
20712;DHT22;10517;50.742;4.224;2022-10-15T07:00:50;15.40;99.90
20712;DHT22;10517;50.742;4.224;2022-10-15T07:03:15;15.50;99.90
20712;DHT22;10517;50.742;4.224;2022-10-15T07:05:41;15.50;99.90
20712;DHT22;10517;50.742;4.224;2022-10-15T07:08:06;15.60;99.90
20712;DHT22;10517;50.742;4.224;2022-10-15T07:10:32;15.50;99.90
20712;DHT22;10517;50.742;4.224;2022-10-15T07:13:01;15.50;99.90
20712;DHT22;10517;50.742;4.224;2022-10-15T07:15:28;15.50;99.90
20712;DHT22;10517;50.742;4.224;2022-10-15T07:17:55;15.60;99.90
20712;DHT22;10517;50.742;4.224;2022-10-15T07:20:22;15.60;99.90
20712;DHT22;10517;50.742;4.224;2022-10-15T07:22:48;15.70;99.90
20712;DHT22;10517;50.742;4.224;2022-10-15T07:25:14;15.60;99.90
20712;DHT22;10517;50.742;4.224;2022-10-15T07:27:39;15.70;99.90
20712;DHT22;10517;50.742;4.224;2022-10-15T07:30:07;15.70;99.90
20712;DHT22;10517;50.742;4.224;2022-10-15T07:32:33;15.70;99.90
20712;DHT22;10517;50.742;4.224;2022-10-15T07:34:59;15.70;99.90
20712;DHT22;10517;50.742;4.224;2022-10-15T07:37:24;15.60;99.90
20712;DHT22;10517;50.742;4.224;2022-10-15T07:39:50;15.60;99.90
20712;DHT22;10517;50.742;4.224;2022-10-15T07:42:15;15.60;99.90
20712;DHT22;10517;50.742;4.224;2022-10-15T07:44:41;15.70;99.90
20712;DHT22;10517;50.742;4.224;2022-10-15T07:47:07;15.60;99.90
20712;DHT22;10517;50.742;4.224;2022-10-15T07:49:32;15.60;99.90
20712;DHT22;10517;50.742;4.224;2022-10-15T07:51:58;15.60;99.90
20712;DHT22;10517;50.742;4.224;2022-10-15T07:54:24;15.60;99.90
20712;DHT22;10517;50.742;4.224;2022-10-15T07:56:49;15.70;99.90
20712;DHT22;10517;50.742;4.224;2022-10-15T07:59:15;15.70;99.90
20712;DHT22;10517;50.742;4.224;2022-10-15T08:01:40;15.70;99.90
20712;DHT22;10517;50.742;4.224;2022-10-15T08:04:06;15.60;99.90
20712;DHT22;10517;50.742;4.224;2022-10-15T08:06:32;15.70;99.90
20712;DHT22;10517;50.742;4.224;2022-10-15T08:08:58;15.70;99.90
20712;DHT22;10517;50.742;4.224;2022-10-15T08:11:24;15.70;99.90
20712;DHT22;10517;50.742;4.224;2022-10-15T08:13:51;15.80;99.90
20712;DHT22;10517;50.742;4.224;2022-10-15T08:16:17;15.80;99.90
20712;DHT22;10517;50.742;4.224;2022-10-15T08:18:44;15.80;99.90
20712;DHT22;10517;50.742;4.224;2022-10-15T08:21:10;15.90;99.90
20712;DHT22;10517;50.742;4.224;2022-10-15T08:23:36;16.00;99.90
20712;DHT22;10517;50.742;4.224;2022-10-15T08:26:03;16.20;99.90
20712;DHT22;10517;50.742;4.224;2022-10-15T08:28:30;16.20;99.90
20712;DHT22;10517;50.742;4.224;2022-10-15T08:30:58;16.20;99.90
20712;DHT22;10517;50.742;4.224;2022-10-15T08:33:24;16.20;99.90
20712;DHT22;10517;50.742;4.224;2022-10-15T08:35:49;16.30;99.90
20712;DHT22;10517;50.742;4.224;2022-10-15T08:38:15;16.30;99.90
20712;DHT22;10517;50.742;4.224;2022-10-15T08:40:49;16.40;99.90
20712;DHT22;10517;50.742;4.224;2022-10-15T08:45:45;16.40;99.90
20712;DHT22;10517;50.742;4.224;2022-10-15T08:48:32;16.50;99.90
20712;DHT22;10517;50.742;4.224;2022-10-15T08:51:02;16.50;99.90
20712;DHT22;10517;50.742;4.224;2022-10-15T08:53:33;16.60;99.90
20712;DHT22;10517;50.742;4.224;2022-10-15T08:56:04;16.70;99.90
20712;DHT22;10517;50.742;4.224;2022-10-15T09:01:23;17.00;99.90
20712;DHT22;10517;50.742;4.224;2022-10-15T09:06:35;17.10;99.90
20712;DHT22;10517;50.742;4.224;2022-10-15T09:09:31;17.30;99.90
20712;DHT22;10517;50.742;4.224;2022-10-15T09:15:03;17.40;99.90
20712;DHT22;10517;50.742;4.224;2022-10-15T09:17:31;17.60;99.90
20712;DHT22;10517;50.742;4.224;2022-10-15T09:20:04;17.60;99.90
20712;DHT22;10517;50.742;4.224;2022-10-15T09:22:32;17.60;99.90
20712;DHT22;10517;50.742;4.224;2022-10-15T09:25:12;17.70;99.90
20712;DHT22;10517;50.742;4.224;2022-10-15T09:27:38;17.80;99.90
20712;DHT22;10517;50.742;4.224;2022-10-15T09:32:57;17.90;99.90
20712;DHT22;10517;50.742;4.224;2022-10-15T09:35:44;17.90;99.90
20712;DHT22;10517;50.742;4.224;2022-10-15T09:38:26;18.10;99.90
20712;DHT22;10517;50.742;4.224;2022-10-15T09:41:12;18.00;99.90
20712;DHT22;10517;50.742;4.224;2022-10-15T09:43:45;18.00;99.90
20712;DHT22;10517;50.742;4.224;2022-10-15T09:46:12;18.00;99.90
20712;DHT22;10517;50.742;4.224;2022-10-15T09:48:45;18.10;99.90
20712;DHT22;10517;50.742;4.224;2022-10-15T09:56:37;18.20;99.90
20712;DHT22;10517;50.742;4.224;2022-10-15T09:59:04;18.20;99.90
20712;DHT22;10517;50.742;4.224;2022-10-15T10:01:31;18.40;99.90
20712;DHT22;10517;50.742;4.224;2022-10-15T10:06:49;18.50;99.90
20712;DHT22;10517;50.742;4.224;2022-10-15T10:09:20;18.40;99.90
20712;DHT22;10517;50.742;4.224;2022-10-15T10:11:59;18.30;99.90
20712;DHT22;10517;50.742;4.224;2022-10-15T10:14:45;18.50;99.90
20712;DHT22;10517;50.742;4.224;2022-10-15T10:17:23;18.70;99.90
20712;DHT22;10517;50.742;4.224;2022-10-15T10:20:22;18.90;99.90
20712;DHT22;10517;50.742;4.224;2022-10-15T10:22:59;19.00;99.90
20712;DHT22;10517;50.742;4.224;2022-10-15T10:27:55;19.10;99.90
20712;DHT22;10517;50.742;4.224;2022-10-15T10:30:22;19.20;99.90
20712;DHT22;10517;50.742;4.224;2022-10-15T10:32:48;19.50;99.90
20712;DHT22;10517;50.742;4.224;2022-10-15T10:35:22;19.60;99.90
20712;DHT22;10517;50.742;4.224;2022-10-15T10:37:48;19.80;99.90
20712;DHT22;10517;50.742;4.224;2022-10-15T10:40:27;19.90;99.90
20712;DHT22;10517;50.742;4.224;2022-10-15T10:45:59;19.90;99.90
20712;DHT22;10517;50.742;4.224;2022-10-15T10:48:43;19.80;99.90
20712;DHT22;10517;50.742;4.224;2022-10-15T10:56:10;19.90;99.90
20712;DHT22;10517;50.742;4.224;2022-10-15T10:58:38;19.90;99.90
20712;DHT22;10517;50.742;4.224;2022-10-15T11:01:03;19.80;99.90
20712;DHT22;10517;50.742;4.224;2022-10-15T11:11:38;19.80;99.90
20712;DHT22;10517;50.742;4.224;2022-10-15T11:14:27;19.80;99.90
20712;DHT22;10517;50.742;4.224;2022-10-15T11:19:46;20.00;99.90
20712;DHT22;10517;50.742;4.224;2022-10-15T11:30:37;20.00;99.90
20712;DHT22;10517;50.742;4.224;2022-10-15T11:42:15;20.20;99.90
20712;DHT22;10517;50.742;4.224;2022-10-15T11:50:12;20.50;99.90
20712;DHT22;10517;50.742;4.224;2022-10-15T11:52:47;20.50;99.90
20712;DHT22;10517;50.742;4.224;2022-10-15T11:58:01;19.50;99.90
20712;DHT22;10517;50.742;4.224;2022-10-15T12:00:33;19.50;99.90
20712;DHT22;10517;50.742;4.224;2022-10-15T12:03:18;19.60;99.90
20712;DHT22;10517;50.742;4.224;2022-10-15T12:05:53;19.80;99.90
20712;DHT22;10517;50.742;4.224;2022-10-15T12:08:20;19.90;99.90
20712;DHT22;10517;50.742;4.224;2022-10-15T12:11:10;19.80;99.90
20712;DHT22;10517;50.742;4.224;2022-10-15T12:13:47;19.70;99.90
20712;DHT22;10517;50.742;4.224;2022-10-15T12:19:16;18.90;99.90
20712;DHT22;10517;50.742;4.224;2022-10-15T12:27:29;18.20;99.90
20712;DHT22;10517;50.742;4.224;2022-10-15T12:37:42;17.80;99.90
20712;DHT22;10517;50.742;4.224;2022-10-15T12:40:29;17.80;99.90
20712;DHT22;10517;50.742;4.224;2022-10-15T12:43:01;17.80;99.90
20712;DHT22;10517;50.742;4.224;2022-10-15T12:45:39;17.90;99.90
20712;DHT22;10517;50.742;4.224;2022-10-15T12:48:16;18.10;99.90
20712;DHT22;10517;50.742;4.224;2022-10-15T12:50:43;18.20;99.90
20712;DHT22;10517;50.742;4.224;2022-10-15T12:53:29;18.30;99.90
20712;DHT22;10517;50.742;4.224;2022-10-15T12:56:12;18.50;99.90
20712;DHT22;10517;50.742;4.224;2022-10-15T12:58:51;18.60;99.90
20712;DHT22;10517;50.742;4.224;2022-10-15T13:16:46;19.30;99.90
20712;DHT22;10517;50.742;4.224;2022-10-15T13:19:27;19.80;99.90
20712;DHT22;10517;50.742;4.224;2022-10-15T13:21:58;20.40;99.90
20712;DHT22;10517;50.742;4.224;2022-10-15T13:24:26;21.00;99.90
20712;DHT22;10517;50.742;4.224;2022-10-15T13:26:53;21.10;99.90
20712;DHT22;10517;50.742;4.224;2022-10-15T13:29:26;20.90;99.90
20712;DHT22;10517;50.742;4.224;2022-10-15T13:31:54;20.50;99.90
20712;DHT22;10517;50.742;4.224;2022-10-15T13:34:27;20.50;99.90
20712;DHT22;10517;50.742;4.224;2022-10-15T13:36:56;20.90;99.90
20712;DHT22;10517;50.742;4.224;2022-10-15T13:39:36;20.70;99.90
20712;DHT22;10517;50.742;4.224;2022-10-15T13:44:37;19.80;99.90
20712;DHT22;10517;50.742;4.224;2022-10-15T13:47:25;19.30;99.90
20712;DHT22;10517;50.742;4.224;2022-10-15T13:52:40;19.70;99.90
20712;DHT22;10517;50.742;4.224;2022-10-15T13:55:27;19.50;99.90
20712;DHT22;10517;50.742;4.224;2022-10-15T13:57:59;19.20;99.90
20712;DHT22;10517;50.742;4.224;2022-10-15T14:00:31;19.00;99.90
20712;DHT22;10517;50.742;4.224;2022-10-15T14:05:38;19.30;99.90
20712;DHT22;10517;50.742;4.224;2022-10-15T14:08:04;19.60;99.90
20712;DHT22;10517;50.742;4.224;2022-10-15T14:10:30;19.90;99.90
20712;DHT22;10517;50.742;4.224;2022-10-15T14:12:56;20.00;99.90
20712;DHT22;10517;50.742;4.224;2022-10-15T14:18:34;19.70;99.90
20712;DHT22;10517;50.742;4.224;2022-10-15T14:21:02;20.30;99.90
20712;DHT22;10517;50.742;4.224;2022-10-15T14:23:28;20.50;99.90
20712;DHT22;10517;50.742;4.224;2022-10-15T14:25:57;20.80;99.90
20712;DHT22;10517;50.742;4.224;2022-10-15T14:28:24;21.00;99.90
20712;DHT22;10517;50.742;4.224;2022-10-15T14:30:51;22.70;99.90
20712;DHT22;10517;50.742;4.224;2022-10-15T14:33:39;24.50;99.90
20712;DHT22;10517;50.742;4.224;2022-10-15T14:38:32;25.90;99.90
20712;DHT22;10517;50.742;4.224;2022-10-15T14:41:17;27.40;99.90
20712;DHT22;10517;50.742;4.224;2022-10-15T14:43:45;28.50;99.90
20712;DHT22;10517;50.742;4.224;2022-10-15T14:46:16;29.40;99.90
20712;DHT22;10517;50.742;4.224;2022-10-15T14:48:43;29.60;99.90
20712;DHT22;10517;50.742;4.224;2022-10-15T14:51:18;28.30;99.90
20712;DHT22;10517;50.742;4.224;2022-10-15T14:53:45;27.10;99.90
20712;DHT22;10517;50.742;4.224;2022-10-15T14:56:19;26.60;99.90
20712;DHT22;10517;50.742;4.224;2022-10-15T14:58:55;26.00;99.90
20712;DHT22;10517;50.742;4.224;2022-10-15T15:01:22;25.30;99.90
20712;DHT22;10517;50.742;4.224;2022-10-15T15:03:51;24.20;99.90
20712;DHT22;10517;50.742;4.224;2022-10-15T15:06:17;23.90;99.90
20712;DHT22;10517;50.742;4.224;2022-10-15T15:08:43;23.30;99.90
20712;DHT22;10517;50.742;4.224;2022-10-15T15:11:17;22.60;99.90
20712;DHT22;10517;50.742;4.224;2022-10-15T15:13:44;22.00;99.90
20712;DHT22;10517;50.742;4.224;2022-10-15T15:16:15;22.10;99.90
20712;DHT22;10517;50.742;4.224;2022-10-15T15:18:41;22.00;99.90
20712;DHT22;10517;50.742;4.224;2022-10-15T15:21:19;21.70;99.90
20712;DHT22;10517;50.742;4.224;2022-10-15T15:23:45;21.30;99.90
20712;DHT22;10517;50.742;4.224;2022-10-15T15:26:11;21.30;99.90
20712;DHT22;10517;50.742;4.224;2022-10-15T15:28:37;21.20;99.90
20712;DHT22;10517;50.742;4.224;2022-10-15T15:31:06;20.90;99.90
20712;DHT22;10517;50.742;4.224;2022-10-15T15:33:33;20.60;99.90
20712;DHT22;10517;50.742;4.224;2022-10-15T15:35:59;20.10;99.90
20712;DHT22;10517;50.742;4.224;2022-10-15T15:38:25;19.70;99.90
20712;DHT22;10517;50.742;4.224;2022-10-15T15:41:18;19.20;99.90
20712;DHT22;10517;50.742;4.224;2022-10-15T15:43:44;18.90;99.90
20712;DHT22;10517;50.742;4.224;2022-10-15T15:46:10;18.80;99.90
20712;DHT22;10517;50.742;4.224;2022-10-15T15:48:36;18.70;99.90
20712;DHT22;10517;50.742;4.224;2022-10-15T15:51:10;18.60;99.90
20712;DHT22;10517;50.742;4.224;2022-10-15T15:53:37;18.60;99.90
20712;DHT22;10517;50.742;4.224;2022-10-15T15:56:03;18.60;99.90
20712;DHT22;10517;50.742;4.224;2022-10-15T15:58:28;18.50;99.90
20712;DHT22;10517;50.742;4.224;2022-10-15T16:00:54;18.40;99.90
20712;DHT22;10517;50.742;4.224;2022-10-15T16:03:19;18.40;99.90
20712;DHT22;10517;50.742;4.224;2022-10-15T16:05:45;18.30;99.90
20712;DHT22;10517;50.742;4.224;2022-10-15T16:08:12;18.30;99.90
20712;DHT22;10517;50.742;4.224;2022-10-15T16:10:37;18.20;99.90
20712;DHT22;10517;50.742;4.224;2022-10-15T16:13:03;18.20;99.90
20712;DHT22;10517;50.742;4.224;2022-10-15T16:15:28;18.10;99.90
20712;DHT22;10517;50.742;4.224;2022-10-15T16:17:54;18.00;99.90
20712;DHT22;10517;50.742;4.224;2022-10-15T16:20:20;17.90;99.90
20712;DHT22;10517;50.742;4.224;2022-10-15T16:22:50;17.80;99.90
20712;DHT22;10517;50.742;4.224;2022-10-15T16:25:15;17.70;99.90
20712;DHT22;10517;50.742;4.224;2022-10-15T16:27:41;17.60;99.90
20712;DHT22;10517;50.742;4.224;2022-10-15T16:30:10;17.50;99.90
20712;DHT22;10517;50.742;4.224;2022-10-15T16:32:35;17.40;99.90
20712;DHT22;10517;50.742;4.224;2022-10-15T16:35:01;17.30;99.90
20712;DHT22;10517;50.742;4.224;2022-10-15T16:37:27;17.20;99.90
20712;DHT22;10517;50.742;4.224;2022-10-15T16:39:52;17.10;99.90
20712;DHT22;10517;50.742;4.224;2022-10-15T16:42:18;16.90;99.90
20712;DHT22;10517;50.742;4.224;2022-10-15T16:44:43;16.80;99.90
20712;DHT22;10517;50.742;4.224;2022-10-15T16:47:09;16.70;99.90
20712;DHT22;10517;50.742;4.224;2022-10-15T16:49:35;16.70;99.90
20712;DHT22;10517;50.742;4.224;2022-10-15T16:52:00;16.50;99.90
20712;DHT22;10517;50.742;4.224;2022-10-15T16:54:26;16.40;99.90
20712;DHT22;10517;50.742;4.224;2022-10-15T16:56:51;16.30;99.90
20712;DHT22;10517;50.742;4.224;2022-10-15T16:59:18;16.20;99.90
20712;DHT22;10517;50.742;4.224;2022-10-15T17:01:44;16.10;99.90
20712;DHT22;10517;50.742;4.224;2022-10-15T17:04:10;16.10;99.90
20712;DHT22;10517;50.742;4.224;2022-10-15T17:06:35;16.00;99.90
20712;DHT22;10517;50.742;4.224;2022-10-15T17:09:01;15.90;99.90
20712;DHT22;10517;50.742;4.224;2022-10-15T17:11:37;15.90;99.90
20712;DHT22;10517;50.742;4.224;2022-10-15T17:14:11;15.90;99.90
20712;DHT22;10517;50.742;4.224;2022-10-15T17:16:40;15.80;99.90
20712;DHT22;10517;50.742;4.224;2022-10-15T17:19:07;15.70;99.90
20712;DHT22;10517;50.742;4.224;2022-10-15T17:21:34;15.70;99.90
20712;DHT22;10517;50.742;4.224;2022-10-15T17:24:01;15.70;99.90
20712;DHT22;10517;50.742;4.224;2022-10-15T17:26:33;15.70;99.90
20712;DHT22;10517;50.742;4.224;2022-10-15T17:29:01;15.60;99.90
20712;DHT22;10517;50.742;4.224;2022-10-15T17:31:27;15.60;99.90
20712;DHT22;10517;50.742;4.224;2022-10-15T17:33:55;15.60;99.90
20712;DHT22;10517;50.742;4.224;2022-10-15T17:36:22;15.60;99.90
20712;DHT22;10517;50.742;4.224;2022-10-15T17:38:47;15.50;99.90
20712;DHT22;10517;50.742;4.224;2022-10-15T17:41:18;15.40;99.90
20712;DHT22;10517;50.742;4.224;2022-10-15T17:43:44;15.40;99.90
20712;DHT22;10517;50.742;4.224;2022-10-15T17:46:12;15.30;99.90
20712;DHT22;10517;50.742;4.224;2022-10-15T17:48:38;15.30;99.90
20712;DHT22;10517;50.742;4.224;2022-10-15T17:51:09;15.30;99.90
20712;DHT22;10517;50.742;4.224;2022-10-15T17:53:35;15.20;99.90
20712;DHT22;10517;50.742;4.224;2022-10-15T17:56:09;15.20;99.90
20712;DHT22;10517;50.742;4.224;2022-10-15T17:58:36;15.20;99.90
20712;DHT22;10517;50.742;4.224;2022-10-15T18:01:01;15.10;99.90
20712;DHT22;10517;50.742;4.224;2022-10-15T18:03:27;15.10;99.90